createdAt,value
2019-02-08T00:00:20.052Z,3.72
2019-02-08T00:01:19.940Z,3.72
2019-02-08T00:02:20.094Z,3.78
2019-02-08T00:03:19.917Z,3.84
2019-02-08T00:04:22.026Z,3.86
2019-02-08T00:05:19.887Z,3.90
2019-02-08T00:06:19.876Z,3.82
2019-02-08T00:07:19.877Z,3.90
2019-02-08T00:08:19.898Z,3.82
2019-02-08T00:09:19.871Z,3.86
2019-02-08T00:10:19.938Z,3.84
2019-02-08T00:11:19.819Z,3.86
2019-02-08T00:12:19.874Z,3.88
2019-02-08T00:13:19.804Z,3.81
2019-02-08T00:14:19.864Z,3.89
2019-02-08T00:15:19.783Z,3.81
2019-02-08T00:16:21.812Z,3.78
2019-02-08T00:17:19.754Z,3.82
2019-02-08T00:18:19.783Z,3.80
2019-02-08T00:19:19.752Z,3.80
2019-02-08T00:20:19.812Z,3.80
2019-02-08T00:21:19.714Z,3.86
2019-02-08T00:22:19.701Z,3.99
2019-02-08T00:23:26.719Z,4.10
2019-02-08T00:24:20.687Z,3.96
2019-02-08T00:25:19.755Z,4.04
2019-02-08T00:26:19.658Z,3.92
2019-02-08T00:27:19.644Z,4.10
2019-02-08T00:28:19.625Z,4.18
2019-02-08T00:29:19.664Z,4.20
2019-02-08T00:30:19.600Z,4.29
2019-02-08T00:31:21.605Z,4.26
2019-02-08T00:32:19.575Z,4.21
2019-02-08T00:33:19.586Z,4.26
2019-02-08T00:34:20.628Z,4.20
2019-02-08T00:35:19.537Z,4.25
2019-02-08T00:36:19.598Z,4.21
2019-02-08T00:37:19.518Z,4.26
2019-02-08T00:38:19.508Z,4.20
2019-02-08T00:39:19.609Z,4.16
2019-02-08T00:40:19.510Z,4.17
2019-02-08T00:41:19.540Z,4.21
2019-02-08T00:42:19.470Z,4.24
2019-02-08T00:43:19.460Z,4.17
2019-02-08T00:44:19.450Z,4.18
2019-02-08T00:45:20.493Z,4.34
2019-02-08T00:46:19.430Z,4.28
2019-02-08T00:47:19.462Z,4.28
2019-02-08T00:48:19.402Z,4.32
2019-02-08T00:49:19.502Z,4.31
2019-02-08T00:50:19.405Z,4.28
2019-02-08T00:51:19.432Z,4.31
2019-02-08T00:52:19.363Z,4.38
2019-02-08T00:53:19.463Z,4.36
2019-02-08T00:54:19.350Z,4.36
2019-02-08T00:55:20.374Z,4.32
2019-02-08T00:56:19.316Z,4.36
2019-02-08T00:57:19.335Z,4.36
2019-02-08T00:58:19.296Z,4.35
2019-02-08T00:59:19.286Z,4.34
2019-02-08T01:00:19.297Z,4.36
2019-02-08T01:01:19.306Z,4.35
2019-02-08T01:02:19.346Z,4.36
2019-02-08T01:03:19.347Z,4.36
2019-02-08T01:04:19.228Z,4.35
2019-02-08T01:05:19.318Z,4.28
2019-02-08T01:06:21.981Z,4.21
2019-02-08T01:07:19.219Z,4.18
2019-02-08T01:08:19.170Z,4.08
2019-02-08T01:09:19.170Z,4.00
2019-02-08T01:10:19.171Z,4.11
2019-02-08T01:11:19.190Z,4.04
2019-02-08T01:12:19.141Z,3.98
2019-02-08T01:13:20.142Z,4.02
2019-02-08T01:14:19.113Z,3.96
2019-02-08T01:15:19.203Z,3.88
2019-02-08T01:16:19.083Z,3.82
2019-02-08T01:17:19.097Z,3.82
2019-02-08T01:18:19.054Z,3.74
2019-02-08T01:19:19.134Z,3.90
2019-02-08T01:20:19.048Z,3.84
2019-02-08T01:21:19.065Z,3.95
2019-02-08T01:22:19.062Z,3.95
2019-02-08T01:23:20.036Z,3.88
2019-02-08T01:24:19.006Z,3.88
2019-02-08T01:25:19.016Z,3.92
2019-02-08T01:26:18.977Z,3.86
2019-02-08T01:27:18.987Z,3.86
2019-02-08T01:28:18.957Z,3.95
2019-02-08T01:29:20.048Z,3.93
2019-02-08T01:30:18.959Z,3.93
2019-02-08T01:31:19.979Z,4.11
2019-02-08T01:32:18.908Z,3.93
2019-02-08T01:33:18.990Z,3.96
2019-02-08T01:34:18.890Z,3.96
2019-02-08T01:35:18.980Z,3.95
2019-02-08T01:36:18.871Z,3.92
2019-02-08T01:37:18.861Z,3.86
2019-02-08T01:38:18.841Z,3.82
2019-02-08T01:39:19.921Z,3.72
2019-02-08T01:40:18.842Z,3.82
2019-02-08T01:41:18.832Z,3.89
2019-02-08T01:42:18.802Z,3.92
2019-02-08T01:43:18.873Z,3.86
2019-02-08T01:44:18.773Z,3.86
2019-02-08T01:45:18.858Z,3.71
2019-02-08T01:46:18.775Z,3.81
2019-02-08T01:47:18.746Z,3.81
2019-02-08T01:48:18.816Z,3.80
2019-02-08T01:49:18.707Z,3.70
2019-02-08T01:50:18.797Z,3.71
2019-02-08T01:51:18.693Z,3.54
2019-02-08T01:52:18.686Z,3.60
2019-02-08T01:53:18.747Z,3.57
2019-02-08T01:54:18.657Z,3.53
2019-02-08T01:55:18.727Z,3.46
2019-02-08T01:56:18.639Z,3.42
2019-02-08T01:57:18.619Z,3.45
2019-02-08T01:58:18.608Z,3.54
2019-02-08T01:59:18.660Z,3.60
2019-02-08T02:00:18.610Z,3.67
2019-02-08T02:01:19.630Z,3.57
2019-02-08T02:02:19.580Z,3.57
2019-02-08T02:03:18.551Z,3.59
2019-02-08T02:04:18.592Z,3.59
2019-02-08T02:05:18.562Z,3.60
2019-02-08T02:06:18.641Z,3.56
2019-02-08T02:07:18.512Z,3.45
2019-02-08T02:08:18.505Z,3.45
2019-02-08T02:09:18.542Z,3.41
2019-02-08T02:10:18.503Z,3.42
2019-02-08T02:11:19.494Z,3.39
2019-02-08T02:12:18.480Z,3.49
2019-02-08T02:13:18.444Z,3.59
2019-02-08T02:14:18.434Z,3.56
2019-02-08T02:15:18.500Z,3.63
2019-02-08T02:16:18.417Z,3.67
2019-02-08T02:17:18.485Z,3.70
2019-02-08T02:18:18.446Z,3.67
2019-02-08T02:19:18.389Z,3.54
2019-02-08T02:20:18.387Z,3.60
2019-02-08T02:21:18.377Z,3.56
2019-02-08T02:22:18.417Z,3.49
2019-02-08T02:23:18.338Z,3.45
2019-02-08T02:24:18.364Z,3.41
2019-02-08T02:25:18.318Z,3.39
2019-02-08T02:26:18.340Z,3.33
2019-02-08T02:27:18.290Z,3.26
2019-02-08T02:28:18.332Z,3.17
2019-02-08T02:29:18.292Z,3.16
2019-02-08T02:30:18.252Z,3.17
2019-02-08T02:31:18.271Z,3.20
2019-02-08T02:32:18.221Z,3.20
2019-02-08T02:33:18.262Z,3.25
2019-02-08T02:34:18.202Z,3.34
2019-02-08T02:35:18.304Z,3.26
2019-02-08T02:36:18.205Z,3.33
2019-02-08T02:37:18.234Z,3.52
2019-02-08T02:38:18.158Z,3.49
2019-02-08T02:39:18.148Z,3.53
2019-02-08T02:40:18.134Z,3.34
2019-02-08T02:41:18.256Z,3.33
2019-02-08T02:42:18.117Z,3.37
2019-02-08T02:43:18.145Z,3.41
2019-02-08T02:44:18.088Z,3.50
2019-02-08T02:45:18.077Z,3.44
2019-02-08T02:46:18.187Z,3.46
2019-02-08T02:47:18.068Z,3.50
2019-02-08T02:48:18.087Z,3.45
2019-02-08T02:49:18.050Z,3.49
2019-02-08T02:50:18.028Z,3.63
2019-02-08T02:51:18.040Z,3.62
2019-02-08T02:52:18.060Z,3.67
2019-02-08T02:53:18.002Z,3.67
2019-02-08T02:54:18.100Z,3.68
2019-02-08T02:55:18.060Z,3.86
2019-02-08T02:56:17.993Z,3.86
2019-02-08T02:57:18.001Z,3.84
2019-02-08T02:58:17.941Z,3.89
2019-02-08T02:59:18.031Z,3.84
2019-02-08T03:00:17.926Z,3.93
2019-02-08T03:01:17.974Z,4.00
2019-02-08T03:02:17.933Z,4.06
2019-02-08T03:03:17.890Z,3.99
2019-02-08T03:04:19.913Z,3.93
2019-02-08T03:05:17.864Z,4.00
2019-02-08T03:06:17.874Z,3.93
2019-02-08T03:07:17.855Z,3.99
2019-02-08T03:08:17.902Z,3.98
2019-02-08T03:09:17.805Z,3.99
2019-02-08T03:10:18.907Z,4.00
2019-02-08T03:11:17.888Z,3.90
2019-02-08T03:12:17.777Z,4.02
2019-02-08T03:13:17.777Z,4.02
2019-02-08T03:14:17.747Z,3.98
2019-02-08T03:15:19.760Z,4.02
2019-02-08T03:16:17.748Z,3.96
2019-02-08T03:17:17.748Z,3.98
2019-02-08T03:18:17.709Z,4.10
2019-02-08T03:19:18.809Z,4.08
2019-02-08T03:20:17.680Z,4.07
2019-02-08T03:21:17.770Z,4.07
2019-02-08T03:22:17.661Z,4.14
2019-02-08T03:23:19.719Z,3.95
2019-02-08T03:24:17.641Z,4.07
2019-02-08T03:25:17.702Z,4.14
2019-02-08T03:26:17.655Z,3.96
2019-02-08T03:27:17.614Z,4.10
2019-02-08T03:28:17.702Z,4.07
2019-02-08T03:29:17.594Z,4.06
2019-02-08T03:30:18.664Z,4.11
2019-02-08T03:31:17.596Z,4.08
2019-02-08T03:32:17.555Z,4.08
2019-02-08T03:33:17.551Z,4.04
2019-02-08T03:34:18.636Z,4.08
2019-02-08T03:35:17.526Z,4.08
2019-02-08T03:36:18.618Z,4.06
2019-02-08T03:37:17.507Z,4.10
2019-02-08T03:38:17.589Z,4.08
2019-02-08T03:39:17.477Z,4.10
2019-02-08T03:40:17.518Z,3.93
2019-02-08T03:41:17.479Z,3.99
2019-02-08T03:42:17.559Z,3.95
2019-02-08T03:43:17.438Z,3.95
2019-02-08T03:44:17.489Z,4.10
2019-02-08T03:45:17.410Z,4.24
2019-02-08T03:46:17.480Z,4.29
2019-02-08T03:47:17.390Z,4.21
2019-02-08T03:48:17.379Z,4.28
2019-02-08T03:49:17.371Z,4.21
2019-02-08T03:50:17.393Z,4.20
2019-02-08T03:51:17.365Z,4.32
2019-02-08T03:52:17.433Z,4.31
2019-02-08T03:53:17.312Z,4.25
2019-02-08T03:54:21.252Z,4.29
2019-02-08T03:55:17.292Z,4.26
2019-02-08T03:56:17.353Z,4.18
2019-02-08T03:57:17.263Z,4.21
2019-02-08T03:58:17.333Z,4.28
2019-02-08T03:59:17.244Z,4.35
2019-02-08T04:00:17.277Z,4.25
2019-02-08T04:01:17.255Z,4.29
2019-02-08T04:02:17.308Z,4.31
2019-02-08T04:03:17.197Z,4.26
2019-02-08T04:04:17.197Z,4.25
2019-02-08T04:05:17.209Z,4.25
2019-02-08T04:06:17.187Z,4.29
2019-02-08T04:07:17.256Z,4.24
2019-02-08T04:08:17.148Z,4.31
2019-02-08T04:09:17.138Z,4.29
2019-02-08T04:10:17.119Z,4.18
2019-02-08T04:11:17.168Z,4.28
2019-02-08T04:12:17.108Z,4.24
2019-02-08T04:13:17.160Z,4.25
2019-02-08T04:14:17.083Z,4.21
2019-02-08T04:15:17.071Z,4.24
2019-02-08T04:16:17.111Z,4.24
2019-02-08T04:17:17.051Z,4.18
2019-02-08T04:18:17.102Z,4.18
2019-02-08T04:19:17.032Z,4.11
2019-02-08T04:20:17.050Z,4.17
2019-02-08T04:21:17.054Z,4.13
2019-02-08T04:22:16.992Z,4.13
2019-02-08T04:23:17.047Z,4.08
2019-02-08T04:24:16.973Z,4.20
2019-02-08T04:25:16.964Z,4.16
2019-02-08T04:26:16.986Z,4.08
2019-02-08T04:27:18.044Z,4.17
2019-02-08T04:28:16.925Z,4.13
2019-02-08T04:29:16.947Z,4.16
2019-02-08T04:30:16.906Z,4.13
2019-02-08T04:31:16.977Z,4.17
2019-02-08T04:32:16.896Z,4.10
2019-02-08T04:33:16.919Z,4.20
2019-02-08T04:34:16.848Z,4.17
2019-02-08T04:35:16.947Z,4.14
2019-02-08T04:36:16.838Z,4.17
2019-02-08T04:37:16.929Z,4.17
2019-02-08T04:38:18.440Z,4.16
2019-02-08T04:39:16.819Z,4.20
2019-02-08T04:40:16.781Z,4.31
2019-02-08T04:41:16.770Z,4.38
2019-02-08T04:42:16.870Z,4.35
2019-02-08T04:43:16.750Z,4.35
2019-02-08T04:44:16.760Z,4.31
2019-02-08T04:45:16.722Z,4.34
2019-02-08T04:46:16.724Z,4.34
2019-02-08T04:47:16.723Z,4.31
2019-02-08T04:48:16.733Z,4.32
2019-02-08T04:49:16.684Z,4.31
2019-02-08T04:50:17.693Z,4.25
2019-02-08T04:51:16.666Z,4.34
2019-02-08T04:52:17.785Z,4.29
2019-02-08T04:53:16.636Z,4.32
2019-02-08T04:54:18.695Z,4.20
2019-02-08T04:55:16.627Z,4.28
2019-02-08T04:56:16.685Z,4.28
2019-02-08T04:57:16.627Z,4.20
2019-02-08T04:58:16.619Z,4.07
2019-02-08T04:59:16.582Z,4.07
2019-02-08T05:00:16.658Z,4.07
2019-02-08T05:01:16.559Z,4.08
2019-02-08T05:02:16.568Z,4.08
2019-02-08T05:03:16.539Z,4.11
2019-02-08T05:04:16.628Z,4.08
2019-02-08T05:05:16.510Z,4.00
2019-02-08T05:06:17.589Z,4.10
2019-02-08T05:07:16.510Z,4.00
2019-02-08T05:08:16.501Z,3.93
2019-02-08T05:09:16.461Z,3.90
2019-02-08T05:10:16.532Z,3.99
2019-02-08T05:11:16.442Z,3.98
2019-02-08T05:12:16.511Z,4.04
2019-02-08T05:13:17.455Z,4.25
2019-02-08T05:14:16.402Z,4.29
2019-02-08T05:15:16.476Z,4.34
2019-02-08T05:16:16.372Z,4.38
2019-02-08T05:17:16.443Z,4.43
2019-02-08T05:18:16.475Z,4.62
2019-02-08T05:19:16.346Z,4.65
2019-02-08T05:20:18.354Z,4.68
2019-02-08T05:21:16.315Z,4.64
2019-02-08T05:22:16.386Z,4.69
2019-02-08T05:23:16.303Z,4.69
2019-02-08T05:24:16.391Z,4.64
2019-02-08T05:25:16.290Z,4.65
2019-02-08T05:26:16.306Z,4.65
2019-02-08T05:27:16.281Z,4.59
2019-02-08T05:28:16.357Z,4.65
2019-02-08T05:29:16.305Z,4.68
2019-02-08T05:30:16.279Z,4.69
2019-02-08T05:31:16.219Z,4.62
2019-02-08T05:32:16.271Z,4.69
2019-02-08T05:33:16.190Z,4.59
2019-02-08T05:34:16.180Z,4.64
2019-02-08T05:35:16.232Z,4.62
2019-02-08T05:36:16.161Z,4.65
2019-02-08T05:37:16.212Z,4.68
2019-02-08T05:38:16.143Z,4.59
2019-02-08T05:39:16.122Z,4.72
2019-02-08T05:40:16.160Z,4.71
2019-02-08T05:41:16.132Z,4.77
2019-02-08T05:42:16.121Z,4.86
2019-02-08T05:43:16.175Z,4.74
2019-02-08T05:44:16.074Z,4.75
2019-02-08T05:45:16.105Z,4.64
2019-02-08T05:46:16.046Z,4.79
2019-02-08T05:47:17.118Z,4.90
2019-02-08T05:48:16.025Z,4.93
2019-02-08T05:49:16.077Z,4.80
2019-02-08T05:50:16.007Z,4.79
2019-02-08T05:51:16.018Z,4.84
2019-02-08T05:52:16.017Z,4.84
2019-02-08T05:53:16.047Z,4.84
2019-02-08T05:54:15.947Z,4.86
2019-02-08T05:55:15.950Z,4.90
2019-02-08T05:56:15.929Z,4.84
2019-02-08T05:57:15.958Z,4.77
2019-02-08T05:58:15.911Z,4.79
2019-02-08T05:59:15.961Z,4.88
2019-02-08T06:00:15.879Z,4.86
2019-02-08T06:01:15.891Z,4.96
2019-02-08T06:02:15.883Z,4.99
2019-02-08T06:03:15.921Z,5.01
2019-02-08T06:04:15.831Z,4.87
2019-02-08T06:05:16.883Z,4.93
2019-02-08T06:06:15.812Z,4.90
2019-02-08T06:07:16.863Z,4.90
2019-02-08T06:08:15.816Z,4.93
2019-02-08T06:09:15.834Z,4.93
2019-02-08T06:10:15.774Z,5.01
2019-02-08T06:11:15.767Z,4.94
2019-02-08T06:12:15.746Z,4.93
2019-02-08T06:13:15.856Z,4.90
2019-02-08T06:14:15.738Z,4.93
2019-02-08T06:15:15.747Z,4.90
2019-02-08T06:16:15.816Z,4.86
2019-02-08T06:17:15.702Z,4.99
2019-02-08T06:18:15.797Z,4.90
2019-02-08T06:19:15.678Z,4.91
2019-02-08T06:20:16.716Z,4.90
2019-02-08T06:21:15.648Z,4.84
2019-02-08T06:22:16.748Z,4.87
2019-02-08T06:23:15.651Z,4.87
2019-02-08T06:24:15.660Z,4.79
2019-02-08T06:25:15.610Z,4.71
2019-02-08T06:26:15.690Z,4.68
2019-02-08T06:27:15.581Z,4.71
2019-02-08T06:28:15.682Z,4.74
2019-02-08T06:29:15.563Z,4.68
2019-02-08T06:30:17.611Z,4.71
2019-02-08T06:31:15.542Z,4.65
2019-02-08T06:32:15.522Z,4.75
2019-02-08T06:33:15.532Z,4.64
2019-02-08T06:34:15.533Z,4.71
2019-02-08T06:35:15.483Z,4.64
2019-02-08T06:36:16.494Z,4.61
2019-02-08T06:37:15.463Z,4.62
2019-02-08T06:38:15.544Z,4.62
2019-02-08T06:39:15.435Z,4.62
2019-02-08T06:40:15.567Z,4.61
2019-02-08T06:41:15.416Z,4.69
2019-02-08T06:42:15.481Z,4.69
2019-02-08T06:43:15.408Z,4.71
2019-02-08T06:44:15.407Z,4.74
2019-02-08T06:45:15.367Z,4.77
2019-02-08T06:46:15.509Z,4.69
2019-02-08T06:47:15.350Z,4.69
2019-02-08T06:48:15.341Z,4.67
2019-02-08T06:49:15.361Z,4.67
2019-02-08T06:50:15.319Z,4.59
2019-02-08T06:51:15.434Z,4.57
2019-02-08T06:52:15.300Z,4.62
2019-02-08T06:53:15.290Z,4.59
2019-02-08T06:54:15.281Z,4.69
2019-02-08T06:55:15.371Z,4.65
2019-02-08T06:56:15.272Z,4.65
2019-02-08T06:57:15.301Z,4.67
2019-02-08T06:58:15.232Z,4.62
2019-02-08T06:59:15.233Z,4.59
2019-02-08T07:00:15.213Z,4.59
2019-02-08T07:01:15.326Z,4.39
2019-02-08T07:02:15.183Z,4.46
2019-02-08T07:03:16.224Z,4.50
2019-02-08T07:04:15.165Z,4.57
2019-02-08T07:05:15.244Z,4.62
2019-02-08T07:06:15.165Z,4.49
2019-02-08T07:07:15.175Z,4.49
2019-02-08T07:08:15.116Z,4.57
2019-02-08T07:09:15.237Z,4.67
2019-02-08T07:10:15.187Z,4.61
2019-02-08T07:11:15.109Z,4.62
2019-02-08T07:12:15.117Z,4.67
2019-02-08T07:13:15.057Z,4.64
2019-02-08T07:14:15.068Z,4.67
2019-02-08T07:15:15.029Z,4.67
2019-02-08T07:16:15.130Z,4.64
2019-02-08T07:17:15.009Z,4.64
2019-02-08T07:18:15.020Z,4.53
2019-02-08T07:19:14.980Z,4.57
2019-02-08T07:20:16.082Z,4.65
2019-02-08T07:21:14.995Z,4.72
2019-02-08T07:22:15.001Z,4.68
2019-02-08T07:23:14.941Z,4.72
2019-02-08T07:24:15.032Z,4.75
2019-02-08T07:25:18.672Z,4.83
2019-02-08T07:26:16.034Z,4.94
2019-02-08T07:27:14.895Z,4.96
2019-02-08T07:28:15.004Z,5.04
2019-02-08T07:29:14.874Z,5.11
2019-02-08T07:30:14.855Z,5.01
2019-02-08T07:31:14.868Z,5.15
2019-02-08T07:32:14.875Z,5.15
2019-02-08T07:33:14.825Z,5.06
2019-02-08T07:34:14.920Z,5.01
2019-02-08T07:35:14.819Z,5.11
2019-02-08T07:36:14.898Z,5.04
2019-02-08T07:37:14.787Z,5.06
2019-02-08T07:38:14.887Z,5.15
2019-02-08T07:39:14.759Z,5.12
2019-02-08T07:40:14.760Z,5.14
2019-02-08T07:41:14.758Z,5.04
2019-02-08T07:42:15.779Z,5.14
2019-02-08T07:43:14.720Z,5.06
2019-02-08T07:44:14.790Z,5.06
2019-02-08T07:45:14.700Z,5.09
2019-02-08T07:46:17.111Z,5.12
2019-02-08T07:47:14.693Z,5.08
2019-02-08T07:48:14.762Z,5.04
2019-02-08T07:49:14.666Z,5.08
2019-02-08T07:50:14.713Z,4.97
2019-02-08T07:51:14.644Z,5.06
2019-02-08T07:52:14.816Z,5.05
2019-02-08T07:53:14.594Z,5.02
2019-02-08T07:54:14.677Z,5.02
2019-02-08T07:55:14.676Z,4.97
2019-02-08T07:56:14.664Z,5.02
2019-02-08T07:57:14.675Z,5.05
2019-02-08T07:58:14.546Z,5.06
2019-02-08T07:59:14.615Z,5.05
2019-02-08T08:00:14.511Z,5.11
2019-02-08T08:01:14.596Z,5.04
2019-02-08T08:02:14.496Z,5.05
2019-02-08T08:03:14.579Z,5.09
2019-02-08T08:04:14.469Z,5.09
2019-02-08T08:05:15.538Z,5.11
2019-02-08T08:06:14.530Z,5.05
2019-02-08T08:07:14.439Z,5.01
2019-02-08T08:08:14.519Z,5.05
2019-02-08T08:09:14.411Z,5.02
2019-02-08T08:10:14.450Z,4.96
2019-02-08T08:11:14.464Z,4.96
2019-02-08T08:12:14.382Z,4.91
2019-02-08T08:13:15.481Z,4.93
2019-02-08T08:14:14.382Z,4.96
2019-02-08T08:15:14.392Z,4.88
2019-02-08T08:16:14.363Z,4.88
2019-02-08T08:17:14.423Z,4.83
2019-02-08T08:18:14.323Z,4.93
2019-02-08T08:19:15.889Z,4.88
2019-02-08T08:20:14.305Z,4.93
2019-02-08T08:21:14.355Z,4.96
2019-02-08T08:22:14.277Z,4.96
2019-02-08T08:23:14.352Z,4.99
2019-02-08T08:24:14.256Z,5.02
2019-02-08T08:25:14.276Z,4.96
2019-02-08T08:26:14.240Z,5.02
2019-02-08T08:27:14.232Z,5.01
2019-02-08T08:28:14.209Z,5.05
2019-02-08T08:29:15.268Z,5.02
2019-02-08T08:30:14.189Z,4.94
2019-02-08T08:31:14.289Z,5.06
2019-02-08T08:32:14.175Z,4.99
2019-02-08T08:33:14.210Z,4.96
2019-02-08T08:34:14.140Z,4.99
2019-02-08T08:35:14.150Z,5.01
2019-02-08T08:36:14.111Z,5.05
2019-02-08T08:37:14.231Z,5.01
2019-02-08T08:38:14.103Z,5.01
2019-02-08T08:39:14.123Z,5.04
2019-02-08T08:40:14.075Z,5.09
2019-02-08T08:41:14.175Z,5.04
2019-02-08T08:42:14.063Z,5.11
2019-02-08T08:43:15.161Z,5.05
2019-02-08T08:44:14.028Z,5.06
2019-02-08T08:45:14.033Z,5.15
2019-02-08T08:46:13.995Z,5.15
2019-02-08T08:47:14.115Z,5.09
2019-02-08T08:48:13.975Z,5.15
2019-02-08T08:49:13.956Z,5.23
2019-02-08T08:50:14.077Z,5.20
2019-02-08T08:51:13.925Z,5.20
2019-02-08T08:52:14.057Z,5.12
2019-02-08T08:53:13.928Z,5.26
2019-02-08T08:54:13.925Z,5.17
2019-02-08T08:55:13.898Z,5.20
2019-02-08T08:56:13.979Z,5.14
2019-02-08T08:57:13.912Z,5.09
2019-02-08T08:58:13.922Z,5.27
2019-02-08T08:59:13.870Z,5.20
2019-02-08T09:00:13.840Z,5.20
2019-02-08T09:01:15.871Z,5.23
2019-02-08T09:02:13.843Z,5.14
2019-02-08T09:03:13.862Z,5.06
2019-02-08T09:04:13.802Z,5.20
2019-02-08T09:05:13.793Z,5.23
2019-02-08T09:06:13.784Z,5.22
2019-02-08T09:07:16.358Z,5.20
2019-02-08T09:08:13.757Z,5.04
2019-02-08T09:09:13.765Z,5.08
2019-02-08T09:10:13.738Z,5.14
2019-02-08T09:11:13.705Z,5.11
2019-02-08T09:12:13.815Z,5.11
2019-02-08T09:13:14.801Z,5.15
2019-02-08T09:14:13.706Z,5.09
2019-02-08T09:15:13.678Z,5.09
2019-02-08T09:16:13.667Z,5.20
2019-02-08T09:17:13.677Z,5.19
2019-02-08T09:18:13.678Z,5.22
2019-02-08T09:19:13.628Z,5.20
2019-02-08T09:20:13.709Z,5.11
2019-02-08T09:21:13.614Z,5.17
2019-02-08T09:22:13.699Z,5.30
2019-02-08T09:23:14.742Z,5.15
2019-02-08T09:24:13.603Z,5.26
2019-02-08T09:25:13.561Z,5.14
2019-02-08T09:26:13.621Z,5.23
2019-02-08T09:27:13.659Z,5.15
2019-02-08T09:28:13.532Z,5.14
2019-02-08T09:29:13.915Z,5.30
2019-02-08T09:30:13.493Z,5.17
2019-02-08T09:31:15.603Z,5.19
2019-02-08T09:32:13.496Z,5.20
2019-02-08T09:33:13.494Z,5.22
2019-02-08T09:34:13.454Z,5.23
2019-02-08T09:35:13.525Z,5.20
2019-02-08T09:36:13.426Z,5.22
2019-02-08T09:37:15.529Z,5.12
2019-02-08T09:38:13.426Z,5.14
2019-02-08T09:39:13.397Z,5.05
2019-02-08T09:40:13.467Z,5.09
2019-02-08T09:41:13.379Z,5.24
2019-02-08T09:42:13.407Z,5.17
2019-02-08T09:43:14.538Z,5.22
2019-02-08T09:44:13.329Z,5.22
2019-02-08T09:45:14.734Z,5.19
2019-02-08T09:46:13.309Z,5.22
2019-02-08T09:47:13.350Z,5.22
2019-02-08T09:48:13.310Z,5.14
2019-02-08T09:49:13.287Z,5.09
2019-02-08T09:50:14.381Z,5.23
2019-02-08T09:51:13.271Z,5.20
2019-02-08T09:52:13.293Z,5.12
2019-02-08T09:53:13.273Z,5.15
2019-02-08T09:54:13.233Z,5.11
2019-02-08T09:55:13.224Z,5.20
2019-02-08T09:56:14.284Z,5.23
2019-02-08T09:57:13.205Z,5.15
2019-02-08T09:58:14.265Z,5.26
2019-02-08T09:59:13.162Z,5.09
2019-02-08T10:00:13.237Z,5.15
2019-02-08T10:01:13.145Z,5.24
2019-02-08T10:02:13.166Z,5.23
2019-02-08T10:03:13.156Z,5.26
2019-02-08T10:04:13.207Z,5.32
2019-02-08T10:05:13.169Z,5.32
2019-02-08T10:06:13.097Z,5.38
2019-02-08T10:07:15.148Z,5.23
2019-02-08T10:08:13.102Z,5.32
2019-02-08T10:09:13.139Z,5.32
2019-02-08T10:10:13.049Z,5.35
2019-02-08T10:11:13.080Z,5.29
2019-02-08T10:12:13.030Z,5.32
2019-02-08T10:13:14.081Z,5.30
2019-02-08T10:14:13.011Z,5.33
2019-02-08T10:15:13.052Z,5.33
2019-02-08T10:16:12.972Z,5.35
2019-02-08T10:17:12.982Z,5.29
2019-02-08T10:18:12.973Z,5.32
2019-02-08T10:19:13.023Z,5.27
2019-02-08T10:20:12.923Z,5.32
2019-02-08T10:21:12.909Z,5.26
2019-02-08T10:22:12.895Z,5.37
2019-02-08T10:23:13.096Z,5.35
2019-02-08T10:24:12.885Z,5.33
2019-02-08T10:25:12.926Z,5.35
2019-02-08T10:26:12.857Z,5.30
2019-02-08T10:27:12.956Z,5.33
2019-02-08T10:28:12.857Z,5.35
2019-02-08T10:29:12.907Z,5.37
2019-02-08T10:30:12.818Z,5.37
2019-02-08T10:31:12.839Z,5.45
2019-02-08T10:32:12.788Z,5.47
2019-02-08T10:33:17.109Z,5.49
2019-02-08T10:34:12.769Z,5.48
2019-02-08T10:35:14.859Z,5.56
2019-02-08T10:36:12.760Z,5.58
2019-02-08T10:37:12.742Z,5.56
2019-02-08T10:38:12.773Z,5.66
2019-02-08T10:39:12.781Z,5.65
2019-02-08T10:40:12.715Z,5.69
2019-02-08T10:41:12.722Z,5.69
2019-02-08T10:42:12.683Z,5.75
2019-02-08T10:43:12.713Z,5.75
2019-02-08T10:44:12.665Z,5.73
2019-02-08T10:45:12.684Z,5.80
2019-02-08T10:46:12.666Z,5.75
2019-02-08T10:47:13.646Z,5.75
2019-02-08T10:48:12.655Z,5.81
2019-02-08T10:49:12.606Z,5.78
2019-02-08T10:50:12.630Z,5.81
2019-02-08T10:51:12.587Z,5.81
2019-02-08T10:52:12.666Z,5.88
2019-02-08T10:53:12.597Z,5.96
2019-02-08T10:54:12.597Z,5.95
2019-02-08T10:55:12.538Z,6.01
2019-02-08T10:56:15.243Z,6.03
2019-02-08T10:57:12.572Z,6.05
2019-02-08T10:58:12.570Z,6.03
2019-02-08T10:59:12.520Z,6.08
2019-02-08T11:00:12.500Z,6.08
2019-02-08T11:01:12.462Z,6.13
2019-02-08T11:02:13.561Z,6.24
2019-02-08T11:03:12.452Z,6.28
2019-02-08T11:04:12.452Z,6.25
2019-02-08T11:05:12.412Z,6.30
2019-02-08T11:06:12.414Z,6.32
2019-02-08T11:07:12.394Z,6.36
2019-02-08T11:08:13.427Z,6.32
2019-02-08T11:09:12.394Z,6.39
2019-02-08T11:10:12.381Z,6.39
2019-02-08T11:11:12.454Z,6.48
2019-02-08T11:12:12.334Z,6.60
2019-02-08T11:13:12.405Z,6.55
2019-02-08T11:14:12.335Z,6.61
2019-02-08T11:15:12.298Z,6.71
2019-02-08T11:16:12.309Z,6.57
2019-02-08T11:17:13.378Z,6.72
2019-02-08T11:18:12.267Z,6.73
2019-02-08T11:19:12.351Z,6.69
2019-02-08T11:20:12.268Z,6.78
2019-02-08T11:21:12.349Z,6.71
2019-02-08T11:22:12.219Z,6.71
2019-02-08T11:23:12.270Z,6.64
2019-02-08T11:24:12.250Z,6.68
2019-02-08T11:25:12.310Z,6.73
2019-02-08T11:26:12.192Z,6.68
2019-02-08T11:27:12.181Z,6.71
2019-02-08T11:28:12.162Z,6.73
2019-02-08T11:29:12.232Z,6.69
2019-02-08T11:30:12.141Z,6.73
2019-02-08T11:31:12.134Z,6.73
2019-02-08T11:32:12.113Z,6.78
2019-02-08T11:33:12.159Z,6.63
2019-02-08T11:34:12.176Z,6.69
2019-02-08T11:35:12.184Z,6.73
2019-02-08T11:36:12.075Z,6.78
2019-02-08T11:37:12.125Z,6.76
2019-02-08T11:38:12.040Z,6.61
2019-02-08T11:39:12.066Z,6.63
2019-02-08T11:40:12.028Z,6.73
2019-02-08T11:41:12.098Z,6.63
2019-02-08T11:42:12.007Z,6.76
2019-02-08T11:43:12.048Z,6.76
2019-02-08T11:44:12.001Z,6.76
2019-02-08T11:45:12.068Z,6.78
2019-02-08T11:46:11.959Z,6.75
2019-02-08T11:47:11.954Z,6.72
2019-02-08T11:48:11.941Z,6.68
2019-02-08T11:49:11.963Z,6.58
2019-02-08T11:50:11.903Z,6.64
2019-02-08T11:51:11.974Z,6.68
2019-02-08T11:52:11.893Z,6.61
2019-02-08T11:53:11.902Z,6.64
2019-02-08T11:54:11.893Z,6.60
2019-02-08T11:55:11.945Z,6.64
2019-02-08T11:56:11.844Z,6.61
2019-02-08T11:57:11.834Z,6.61
2019-02-08T11:58:11.814Z,6.57
2019-02-08T11:59:11.856Z,6.57
2019-02-08T12:00:11.786Z,6.57
2019-02-08T12:01:11.786Z,6.51
2019-02-08T12:02:11.766Z,6.57
2019-02-08T12:03:11.769Z,6.51
2019-02-08T12:04:11.779Z,6.61
2019-02-08T12:05:11.817Z,6.57
2019-02-08T12:06:11.718Z,6.61
2019-02-08T12:07:11.758Z,6.61
2019-02-08T12:08:11.688Z,6.58
2019-02-08T12:09:11.719Z,6.71
2019-02-08T12:10:11.692Z,6.75
2019-02-08T12:11:11.670Z,6.72
2019-02-08T12:12:11.702Z,6.78
2019-02-08T12:13:11.641Z,6.76
2019-02-08T12:14:11.661Z,6.82
2019-02-08T12:15:11.632Z,6.86
2019-02-08T12:16:11.672Z,6.78
2019-02-08T12:17:11.602Z,6.89
2019-02-08T12:18:11.614Z,6.81
2019-02-08T12:19:11.603Z,6.87
2019-02-08T12:20:11.643Z,6.97
2019-02-08T12:21:11.564Z,7.00
2019-02-08T12:22:13.545Z,6.99
2019-02-08T12:23:11.535Z,7.05
2019-02-08T12:24:12.585Z,7.01
2019-02-08T12:25:11.515Z,7.04
2019-02-08T12:26:11.506Z,7.04
2019-02-08T12:27:11.487Z,7.09
2019-02-08T12:28:11.477Z,7.14
2019-02-08T12:29:11.512Z,7.12
2019-02-08T12:30:11.458Z,7.15
2019-02-08T12:31:11.451Z,7.12
2019-02-08T12:32:11.440Z,7.12
2019-02-08T12:33:11.529Z,7.14
2019-02-08T12:34:11.439Z,7.05
2019-02-08T12:35:11.460Z,7.07
2019-02-08T12:36:11.391Z,7.14
2019-02-08T12:37:11.391Z,7.16
2019-02-08T12:38:11.371Z,7.01
2019-02-08T12:39:11.472Z,7.05
2019-02-08T12:40:11.334Z,7.15
2019-02-08T12:41:12.908Z,7.14
2019-02-08T12:42:11.324Z,7.12
2019-02-08T12:43:13.353Z,7.12
2019-02-08T12:44:11.313Z,7.08
2019-02-08T12:45:11.334Z,7.16
2019-02-08T12:46:11.264Z,7.08
2019-02-08T12:47:11.969Z,7.14
2019-02-08T12:48:11.245Z,7.15
2019-02-08T12:49:12.376Z,7.15
2019-02-08T12:50:11.226Z,7.09
2019-02-08T12:51:11.246Z,7.12
2019-02-08T12:52:11.197Z,7.14
2019-02-08T12:53:11.277Z,7.24
2019-02-08T12:54:11.238Z,7.24
2019-02-08T12:55:11.219Z,7.16
2019-02-08T12:56:11.158Z,7.23
2019-02-08T12:57:11.151Z,7.21
2019-02-08T12:58:11.140Z,7.29
2019-02-08T12:59:12.171Z,7.26
2019-02-08T13:00:11.122Z,7.26
2019-02-08T13:01:11.130Z,7.24
2019-02-08T13:02:11.092Z,7.26
2019-02-08T13:03:11.082Z,7.24
2019-02-08T13:04:11.184Z,7.29
2019-02-08T13:05:11.063Z,7.27
2019-02-08T13:06:11.076Z,7.37
2019-02-08T13:07:11.993Z,7.41
2019-02-08T13:08:11.024Z,7.41
2019-02-08T13:09:11.125Z,7.44
2019-02-08T13:10:11.056Z,7.44
2019-02-08T13:11:11.007Z,7.37
2019-02-08T13:12:11.111Z,7.41
2019-02-08T13:13:11.046Z,7.37
2019-02-08T13:14:10.996Z,7.45
2019-02-08T13:15:10.987Z,7.37
2019-02-08T13:16:10.938Z,7.34
2019-02-08T13:17:11.938Z,7.26
2019-02-08T13:18:11.079Z,7.27